This is the latest recevied weather packets stored in our database for station/object EA4BCR. If no packets are shown the sender has not sent any weather packets the latest 10 day(s).
| Time | Temp. | Humidity | Pressure | Rain* | Wind** | Luminosity | Snow |
|---|---|---|---|---|---|---|---|
| 1777428410 | 16.11° C | 61% | 1009.1 hPa | - | - | - | - |
| 1777427810 | 15° C | 61% | 1009.3 hPa | - | - | - | - |
| 1777427209 | 15.56° C | 57% | 1009.3 hPa | - | - | - | - |
| 1777426610 | 15.56° C | 57% | 1009.4 hPa | - | - | - | - |
| 1777426009 | 15.56° C | 56% | 1009.3 hPa | - | - | - | - |
| 1777425410 | 15.56° C | 56% | 1009.3 hPa | - | - | - | - |
| 1777424810 | 15.56° C | 56% | 1009.3 hPa | - | - | - | - |
| 1777424209 | 15° C | 58% | 1009.6 hPa | - | - | - | - |
| 1777423610 | 15.56° C | 58% | 1009.6 hPa | - | - | - | - |
| 1777423010 | 15° C | 56% | 1009.8 hPa | - | - | - | - |
| 1777422410 | 15° C | 57% | 1009.9 hPa | - | - | - | - |
| 1777421810 | 15.56° C | 55% | 1009.7 hPa | - | - | - | - |
| 1777421210 | 17.22° C | 49% | 1009.2 hPa | - | - | - | - |
| 1777420610 | 17.22° C | 49% | 1009.3 hPa | - | - | - | - |
| 1777420010 | 17.22° C | 49% | 1009.3 hPa | - | - | - | - |
| 1777419410 | 17.22° C | 50% | 1009.2 hPa | - | - | - | - |
| 1777418810 | 16.67° C | 51% | 1009.3 hPa | - | - | - | - |
| 1777418210 | 16.67° C | 52% | 1009.5 hPa | - | - | - | - |
| 1777417610 | 16.67° C | 52% | 1009.6 hPa | - | - | - | - |
| 1777417010 | 16.67° C | 53% | 1009.7 hPa | - | - | - | - |
| 1777416410 | 16.11° C | 52% | 1010 hPa | - | - | - | - |
| 1777415810 | 16.11° C | 53% | 1009.8 hPa | - | - | - | - |
| 1777415210 | 16.67° C | 52% | 1009.8 hPa | - | - | - | - |
| 1777414609 | 16.67° C | 50% | 1009.5 hPa | - | - | - | - |
| 1777414009 | 17.22° C | 50% | 1009.6 hPa | - | - | - | - |
* Rain since midnight (hover to see other rain measurements)
** Current wind speed in m/s (hover to see current wind gust speed)